createdAt,value
2022-11-29T00:00:29.088Z,6.13
2022-11-29T00:02:55.597Z,5.60
2022-11-29T00:05:22.080Z,5.50
2022-11-29T00:07:48.508Z,5.63
2022-11-29T00:10:14.934Z,5.22
2022-11-29T00:12:41.352Z,4.90
2022-11-29T00:15:07.756Z,5.03
2022-11-29T00:17:34.232Z,4.85
2022-11-29T00:20:00.622Z,4.80
2022-11-29T00:22:30.388Z,4.97
2022-11-29T00:24:56.776Z,4.78
2022-11-29T00:27:23.172Z,4.80
2022-11-29T00:29:49.585Z,5.05
2022-11-29T00:32:15.965Z,4.90
2022-11-29T00:34:42.640Z,5.03
2022-11-29T00:37:09.224Z,4.28
2022-11-29T00:39:35.620Z,4.20
2022-11-29T00:42:01.989Z,4.38
2022-11-29T00:44:28.385Z,4.30
2022-11-29T00:46:54.790Z,4.00
2022-11-29T00:49:21.197Z,3.67
2022-11-29T00:51:47.608Z,4.28
2022-11-29T00:54:14.007Z,3.60
2022-11-29T00:56:40.415Z,3.83
2022-11-29T00:59:06.802Z,4.18
2022-11-29T01:01:33.262Z,3.80
2022-11-29T01:03:59.696Z,3.67
2022-11-29T01:06:26.085Z,3.55
2022-11-29T01:08:52.494Z,3.42
2022-11-29T01:11:18.869Z,3.30
2022-11-29T01:13:45.266Z,3.22
2022-11-29T01:16:11.700Z,3.30
2022-11-29T01:18:38.072Z,3.47
2022-11-29T01:21:04.480Z,3.60
2022-11-29T01:23:30.895Z,3.20
2022-11-29T01:25:57.264Z,3.20
2022-11-29T01:28:23.678Z,3.42
2022-11-29T01:30:50.105Z,2.97
2022-11-29T01:33:16.527Z,3.72
2022-11-29T01:35:42.908Z,3.10
2022-11-29T01:38:09.297Z,3.10
2022-11-29T01:40:36.133Z,3.22
2022-11-29T01:43:02.585Z,3.60
2022-11-29T01:45:29.120Z,3.35
2022-11-29T01:47:55.666Z,3.30
2022-11-29T01:50:22.102Z,3.40
2022-11-29T01:52:48.550Z,3.35
2022-11-29T01:55:15.623Z,3.38
2022-11-29T01:57:42.349Z,3.08
2022-11-29T02:00:08.975Z,2.97
2022-11-29T02:02:35.543Z,2.75
2022-11-29T02:05:02.232Z,3.00
2022-11-29T02:07:29.038Z,2.90
2022-11-29T02:09:55.478Z,3.03
2022-11-29T02:12:21.954Z,2.92
2022-11-29T02:14:48.450Z,3.50
2022-11-29T02:17:15.079Z,2.50
2022-11-29T02:19:41.731Z,3.00
2022-11-29T02:22:08.371Z,2.88
2022-11-29T02:24:35.044Z,3.03
2022-11-29T02:27:01.478Z,3.47
2022-11-29T02:29:27.894Z,3.33
2022-11-29T02:31:54.548Z,3.63
2022-11-29T02:34:21.040Z,3.35
2022-11-29T02:36:47.606Z,3.65
2022-11-29T02:39:14.028Z,3.33
2022-11-29T02:41:40.792Z,3.42
2022-11-29T02:44:07.333Z,3.05
2022-11-29T02:46:34.323Z,3.17
2022-11-29T02:49:01.043Z,2.80
2022-11-29T02:51:27.476Z,3.13
2022-11-29T02:53:53.917Z,3.20
2022-11-29T02:56:20.592Z,2.47
2022-11-29T02:58:47.101Z,2.67
2022-11-29T03:01:13.666Z,2.40
2022-11-29T03:03:40.171Z,2.65
2022-11-29T03:06:06.575Z,3.17
2022-11-29T03:08:33.061Z,2.58
2022-11-29T03:10:59.607Z,2.60
2022-11-29T03:13:26.826Z,2.70
2022-11-29T03:15:53.876Z,2.90
2022-11-29T03:18:20.964Z,2.95
2022-11-29T03:20:47.444Z,2.55
2022-11-29T03:23:13.963Z,2.83
2022-11-29T03:25:40.498Z,2.55
2022-11-29T03:28:07.620Z,3.05
2022-11-29T03:30:34.174Z,2.80
2022-11-29T03:33:00.655Z,2.90
2022-11-29T03:35:27.155Z,2.70
2022-11-29T03:37:53.705Z,3.05
2022-11-29T03:40:20.143Z,2.75
2022-11-29T03:42:46.960Z,2.53
2022-11-29T03:45:13.462Z,2.55
2022-11-29T03:47:39.933Z,2.50
2022-11-29T03:50:06.447Z,2.50
2022-11-29T03:52:32.848Z,2.67
2022-11-29T03:54:59.273Z,2.58
2022-11-29T03:57:25.842Z,2.55
2022-11-29T03:59:52.481Z,2.50
2022-11-29T04:02:19.175Z,3.08
2022-11-29T04:04:46.037Z,2.78
2022-11-29T04:07:12.691Z,2.40
2022-11-29T04:09:39.217Z,2.83
2022-11-29T04:12:05.886Z,3.03
2022-11-29T04:14:32.336Z,2.67
2022-11-29T04:16:59.090Z,2.13
2022-11-29T04:19:25.615Z,2.65
2022-11-29T04:21:52.352Z,2.78
2022-11-29T04:24:18.867Z,2.90
2022-11-29T04:26:45.424Z,2.70
2022-11-29T04:29:12.077Z,2.97
2022-11-29T04:31:38.626Z,2.55
2022-11-29T04:34:05.352Z,2.38
2022-11-29T04:36:31.855Z,2.70
2022-11-29T04:38:58.309Z,2.33
2022-11-29T04:41:24.758Z,2.97
2022-11-29T04:43:51.435Z,2.75
2022-11-29T04:46:17.931Z,2.40
2022-11-29T04:48:44.495Z,2.22
2022-11-29T04:51:11.172Z,2.10
2022-11-29T04:53:37.780Z,2.08
2022-11-29T04:56:04.282Z,2.10
2022-11-29T04:58:30.831Z,1.75
2022-11-29T05:00:57.337Z,2.13
2022-11-29T05:03:24.607Z,2.10
2022-11-29T05:05:51.065Z,1.95
2022-11-29T05:08:17.604Z,2.38
2022-11-29T05:10:44.419Z,1.75
2022-11-29T05:13:11.069Z,1.80
2022-11-29T05:15:37.710Z,2.33
2022-11-29T05:18:04.191Z,1.88
2022-11-29T05:20:30.724Z,2.00
2022-11-29T05:22:57.156Z,2.03
2022-11-29T05:25:23.602Z,1.80
2022-11-29T05:27:50.318Z,2.25
2022-11-29T05:30:16.958Z,2.05
2022-11-29T05:32:43.682Z,1.70
2022-11-29T05:35:10.177Z,2.17
2022-11-29T05:37:36.691Z,2.00
2022-11-29T05:40:03.195Z,2.10
2022-11-29T05:42:29.836Z,2.80
2022-11-29T05:44:56.522Z,2.00
2022-11-29T05:47:26.872Z,2.00
2022-11-29T05:49:56.837Z,1.83
2022-11-29T05:52:23.313Z,1.92
2022-11-29T05:54:49.783Z,1.85
2022-11-29T05:57:16.253Z,1.95
2022-11-29T05:59:42.722Z,1.60
2022-11-29T06:02:09.208Z,2.10
2022-11-29T06:04:35.779Z,2.08
2022-11-29T06:07:02.230Z,2.03
2022-11-29T06:09:29.180Z,2.13
2022-11-29T06:11:56.342Z,2.00
2022-11-29T06:14:23.446Z,2.25
2022-11-29T06:16:50.116Z,2.00
2022-11-29T06:19:16.912Z,2.10
2022-11-29T06:21:44.489Z,2.33
2022-11-29T06:24:11.082Z,2.53
2022-11-29T06:26:37.901Z,2.35
2022-11-29T06:29:04.459Z,2.08
2022-11-29T06:31:31.161Z,1.80
2022-11-29T06:33:57.720Z,2.10
2022-11-29T06:36:24.368Z,2.17
2022-11-29T06:38:51.038Z,1.65
2022-11-29T06:41:21.662Z,1.80
2022-11-29T06:43:48.845Z,2.25
2022-11-29T06:46:15.427Z,2.40
2022-11-29T06:48:43.811Z,2.17
2022-11-29T06:51:16.993Z,2.20
2022-11-29T06:53:44.067Z,2.43
2022-11-29T06:56:11.072Z,1.90
2022-11-29T06:58:37.730Z,2.00
2022-11-29T07:03:46.053Z,2.65
2022-11-29T07:06:13.214Z,2.22
2022-11-29T07:08:39.844Z,2.05
2022-11-29T07:11:06.437Z,1.80
2022-11-29T07:13:33.129Z,2.65
2022-11-29T07:18:51.589Z,1.55
2022-11-29T07:21:17.998Z,1.50
2022-11-29T07:23:44.557Z,1.80
2022-11-29T07:26:11.081Z,1.83
2022-11-29T07:28:37.652Z,1.90
2022-11-29T07:31:04.191Z,1.45
2022-11-29T07:33:30.740Z,2.08
2022-11-29T07:35:57.326Z,1.75
2022-11-29T07:38:23.740Z,2.00
2022-11-29T07:40:50.204Z,2.33
2022-11-29T07:43:16.978Z,2.40
2022-11-29T07:45:43.385Z,2.05
2022-11-29T07:48:09.769Z,2.45
2022-11-29T07:50:36.156Z,2.63
2022-11-29T07:53:02.564Z,2.25
2022-11-29T07:55:29.036Z,2.47
2022-11-29T07:57:55.503Z,2.08
2022-11-29T08:00:21.896Z,2.50
2022-11-29T08:02:48.320Z,2.13
2022-11-29T08:05:14.699Z,1.83
2022-11-29T08:07:41.214Z,2.40
2022-11-29T08:10:07.707Z,2.30
2022-11-29T08:12:34.109Z,2.38
2022-11-29T08:15:00.513Z,1.85
2022-11-29T08:17:26.904Z,2.03
2022-11-29T08:19:53.314Z,1.90
2022-11-29T08:22:19.691Z,1.88
2022-11-29T08:24:46.295Z,1.90
2022-11-29T08:27:12.935Z,1.77
2022-11-29T08:29:39.333Z,1.77
2022-11-29T08:32:05.852Z,1.92
2022-11-29T08:34:32.265Z,1.58
2022-11-29T08:36:58.795Z,1.92
2022-11-29T08:39:25.201Z,1.52
2022-11-29T08:41:51.602Z,1.65
2022-11-29T08:44:18.044Z,1.85
2022-11-29T08:46:44.500Z,1.90
2022-11-29T08:49:10.884Z,1.70
2022-11-29T08:51:37.300Z,1.40
2022-11-29T08:54:03.690Z,2.28
2022-11-29T08:57:16.592Z,1.33
2022-11-29T08:59:57.207Z,1.70
2022-11-29T09:02:23.407Z,2.28
2022-11-29T09:04:49.797Z,1.67
2022-11-29T09:07:16.011Z,1.52
2022-11-29T09:09:42.206Z,1.52
2022-11-29T09:12:08.313Z,1.65
2022-11-29T09:14:34.428Z,1.50
2022-11-29T09:17:00.582Z,1.92
2022-11-29T09:19:26.686Z,2.90
2022-11-29T09:21:52.835Z,1.67
2022-11-29T09:24:18.955Z,1.80
2022-11-29T09:26:45.077Z,1.60
2022-11-29T09:29:11.199Z,1.55
2022-11-29T09:31:37.366Z,1.90
2022-11-29T09:34:03.553Z,2.05
2022-11-29T09:36:29.673Z,1.80
2022-11-29T09:38:55.825Z,1.70
2022-11-29T09:41:21.980Z,1.70
2022-11-29T09:43:48.081Z,1.60
2022-11-29T09:46:14.232Z,1.50
2022-11-29T09:48:40.367Z,1.42
2022-11-29T09:51:06.576Z,1.60
2022-11-29T09:53:32.712Z,1.50
2022-11-29T09:55:58.821Z,1.50
2022-11-29T09:58:24.986Z,1.50
2022-11-29T10:00:51.316Z,1.67
2022-11-29T10:03:17.459Z,1.80
2022-11-29T10:05:43.588Z,1.38
2022-11-29T10:08:09.694Z,1.80
2022-11-29T10:10:35.836Z,1.60
2022-11-29T10:13:01.964Z,1.50
2022-11-29T10:15:28.106Z,1.67
2022-11-29T10:17:54.202Z,1.23
2022-11-29T10:20:20.360Z,1.50
2022-11-29T10:22:46.501Z,1.50
2022-11-29T10:25:12.613Z,1.65
2022-11-29T10:27:38.738Z,1.23
2022-11-29T10:30:04.845Z,1.55
2022-11-29T10:32:31.008Z,1.70
2022-11-29T10:34:57.112Z,1.40
2022-11-29T10:37:23.251Z,1.27
2022-11-29T10:39:49.362Z,1.40
2022-11-29T10:42:15.487Z,1.48
2022-11-29T10:44:41.598Z,1.60
2022-11-29T10:47:10.992Z,1.40
2022-11-29T10:49:37.476Z,1.25
2022-11-29T10:52:03.664Z,1.48
2022-11-29T10:54:29.931Z,0.90
2022-11-29T10:56:56.055Z,1.00
2022-11-29T10:59:22.183Z,1.38
2022-11-29T11:01:48.389Z,1.10
2022-11-29T11:04:14.610Z,1.60
2022-11-29T11:06:40.737Z,1.17
2022-11-29T11:09:06.856Z,1.98
2022-11-29T11:11:33.074Z,1.30
2022-11-29T11:13:59.193Z,1.40
2022-11-29T11:16:25.437Z,1.30
2022-11-29T11:18:51.567Z,1.48
2022-11-29T11:21:17.697Z,2.10
2022-11-29T11:23:43.805Z,1.23
2022-11-29T11:26:09.927Z,1.30
2022-11-29T11:28:36.062Z,1.10
2022-11-29T11:31:02.298Z,1.20
2022-11-29T11:33:28.477Z,0.93
2022-11-29T11:35:54.612Z,0.82
2022-11-29T11:38:20.716Z,1.00
2022-11-29T11:40:46.850Z,0.77
2022-11-29T11:43:12.951Z,1.00
2022-11-29T11:45:39.064Z,0.90
2022-11-29T11:48:05.166Z,0.80
2022-11-29T11:50:31.282Z,1.00
2022-11-29T11:52:57.402Z,1.02
2022-11-29T11:55:23.502Z,1.20
2022-11-29T11:57:49.620Z,0.88
2022-11-29T12:00:15.897Z,1.48
2022-11-29T12:02:42.258Z,1.25
2022-11-29T12:05:08.412Z,1.30
2022-11-29T12:08:06.097Z,1.60
2022-11-29T12:10:20.621Z,1.75
2022-11-29T12:12:46.748Z,1.63
2022-11-29T12:15:12.878Z,1.25
2022-11-29T12:17:39.010Z,1.15
2022-11-29T12:20:05.109Z,1.05
2022-11-29T12:22:31.220Z,1.13
2022-11-29T12:24:57.363Z,1.23
2022-11-29T12:27:23.535Z,1.20
2022-11-29T12:29:49.650Z,1.23
2022-11-29T12:32:15.848Z,1.10
2022-11-29T12:34:43.392Z,1.20
2022-11-29T12:37:09.835Z,1.33
2022-11-29T12:39:35.978Z,1.23
2022-11-29T12:42:02.080Z,1.15
2022-11-29T12:44:28.213Z,1.00
2022-11-29T12:46:57.973Z,1.17
2022-11-29T12:49:39.548Z,0.80
2022-11-29T12:52:05.679Z,1.00
2022-11-29T12:54:31.826Z,0.90
2022-11-29T12:56:57.934Z,0.70
2022-11-29T12:59:24.032Z,0.65
2022-11-29T13:01:50.174Z,0.60
2022-11-29T13:04:16.302Z,0.60
2022-11-29T13:06:42.548Z,0.90
2022-11-29T13:09:08.663Z,0.70
2022-11-29T13:11:34.783Z,0.90
2022-11-29T13:14:20.190Z,0.82
2022-11-29T13:16:47.070Z,0.80
2022-11-29T13:19:13.261Z,0.75
2022-11-29T13:21:39.374Z,0.77
2022-11-29T13:24:09.484Z,0.85
2022-11-29T13:26:36.018Z,0.90
2022-11-29T13:29:02.152Z,0.93
2022-11-29T13:31:28.338Z,0.82
2022-11-29T13:33:54.524Z,0.80
2022-11-29T13:36:20.614Z,1.00
2022-11-29T13:38:46.717Z,0.95
2022-11-29T13:41:12.917Z,1.10
2022-11-29T13:43:39.082Z,1.10
2022-11-29T13:46:05.290Z,1.10
2022-11-29T13:48:31.541Z,0.60
2022-11-29T13:50:57.654Z,0.98
2022-11-29T13:53:23.779Z,0.82
2022-11-29T13:55:49.908Z,1.15
2022-11-29T13:58:17.868Z,1.05
2022-11-29T14:00:44.454Z,1.23
2022-11-29T14:03:10.674Z,1.90
2022-11-29T14:05:36.830Z,1.38
2022-11-29T14:08:02.956Z,2.20
2022-11-29T14:10:29.568Z,2.53
2022-11-29T14:12:55.745Z,1.83
2022-11-29T14:15:21.871Z,1.95
2022-11-29T14:17:48.020Z,3.30
2022-11-29T14:20:14.133Z,2.05
2022-11-29T14:22:40.281Z,4.00
2022-11-29T14:25:21.913Z,3.00
2022-11-29T14:27:52.497Z,2.90
2022-11-29T14:30:18.618Z,3.20
2022-11-29T14:32:46.505Z,3.80
2022-11-29T14:35:12.791Z,3.50
2022-11-29T14:37:38.941Z,3.83
2022-11-29T14:40:05.233Z,4.28
2022-11-29T14:42:31.485Z,4.57
2022-11-29T14:44:57.660Z,5.93
2022-11-29T14:47:23.821Z,5.68
2022-11-29T14:49:49.976Z,7.00
2022-11-29T14:52:16.081Z,5.97
2022-11-29T14:54:42.266Z,6.45
2022-11-29T14:57:08.448Z,6.25
2022-11-29T14:59:34.619Z,6.05
2022-11-29T15:02:00.813Z,6.60
2022-11-29T15:04:27.168Z,6.50
2022-11-29T15:06:53.285Z,6.82
2022-11-29T15:09:19.433Z,6.95
2022-11-29T15:11:45.557Z,7.45
2022-11-29T15:14:11.719Z,6.70
2022-11-29T15:16:37.908Z,7.32
2022-11-29T15:19:04.063Z,7.38
2022-11-29T15:21:30.236Z,7.32
2022-11-29T15:23:56.353Z,7.55
2022-11-29T15:26:22.606Z,6.82
2022-11-29T15:28:48.773Z,7.05
2022-11-29T15:31:15.181Z,6.88
2022-11-29T15:33:41.404Z,7.13
2022-11-29T15:36:07.774Z,7.68
2022-11-29T15:38:36.703Z,8.55
2022-11-29T15:41:05.879Z,8.20
2022-11-29T15:43:35.035Z,7.60
2022-11-29T15:46:01.827Z,7.65
2022-11-29T15:48:28.236Z,7.75
2022-11-29T15:50:54.718Z,7.38
2022-11-29T15:53:20.868Z,8.10
2022-11-29T15:55:50.355Z,8.45
2022-11-29T15:58:16.689Z,8.07
2022-11-29T16:00:42.825Z,8.85
2022-11-29T16:03:08.994Z,8.55
2022-11-29T16:05:35.123Z,9.30
2022-11-29T16:08:01.465Z,8.55
2022-11-29T16:10:33.472Z,9.05
2022-11-29T16:13:01.198Z,8.85
2022-11-29T16:15:27.293Z,9.05
2022-11-29T16:17:53.421Z,9.60
2022-11-29T16:20:19.565Z,10.27
2022-11-29T16:22:45.751Z,10.27
2022-11-29T16:25:12.075Z,10.18
2022-11-29T16:27:38.505Z,10.48
2022-11-29T16:30:04.785Z,10.35
2022-11-29T16:32:31.619Z,11.20
2022-11-29T16:35:00.874Z,10.85
2022-11-29T16:37:27.271Z,11.50
2022-11-29T16:39:53.458Z,10.82
2022-11-29T16:42:24.976Z,10.88
2022-11-29T16:44:52.063Z,10.65
2022-11-29T16:47:21.026Z,10.38
2022-11-29T16:49:53.066Z,10.63
2022-11-29T16:52:19.456Z,12.05
2022-11-29T16:54:45.874Z,12.00
2022-11-29T16:57:12.196Z,11.82
2022-11-29T16:59:38.418Z,11.18
2022-11-29T17:02:04.581Z,12.15
2022-11-29T17:04:30.856Z,11.40
2022-11-29T17:06:57.006Z,13.45
2022-11-29T17:09:23.134Z,13.00
2022-11-29T17:11:49.235Z,15.00
2022-11-29T17:14:15.346Z,13.98
2022-11-29T17:16:41.571Z,17.33
2022-11-29T17:19:07.775Z,14.93
2022-11-29T17:21:34.064Z,14.75
2022-11-29T17:24:00.421Z,14.90
2022-11-29T17:26:26.571Z,15.73
2022-11-29T17:28:52.710Z,16.13
2022-11-29T17:31:18.882Z,16.08
2022-11-29T17:33:45.161Z,15.95
2022-11-29T17:36:11.275Z,16.15
2022-11-29T17:38:37.428Z,16.30
2022-11-29T17:41:03.544Z,15.10
2022-11-29T17:43:29.870Z,14.82
2022-11-29T17:45:56.153Z,15.77
2022-11-29T17:48:22.398Z,15.07
2022-11-29T17:50:48.524Z,15.48
2022-11-29T17:53:14.633Z,15.35
2022-11-29T17:55:40.769Z,15.43
2022-11-29T17:58:06.894Z,14.88
2022-11-29T18:00:33.025Z,15.68
2022-11-29T18:02:59.137Z,15.32
2022-11-29T18:05:27.920Z,16.33
2022-11-29T18:07:57.660Z,16.92
2022-11-29T18:10:23.887Z,16.02
2022-11-29T18:12:50.098Z,16.95
2022-11-29T18:15:16.207Z,16.95
2022-11-29T18:17:42.330Z,16.58
2022-11-29T18:20:08.530Z,18.13
2022-11-29T18:22:34.684Z,18.45
2022-11-29T18:25:16.145Z,17.50
2022-11-29T18:27:46.895Z,18.35
2022-11-29T18:30:13.053Z,18.67
2022-11-29T18:32:39.211Z,17.75
2022-11-29T18:35:05.348Z,17.98
2022-11-29T18:38:06.502Z,18.30
2022-11-29T18:40:17.581Z,17.92
2022-11-29T18:42:43.692Z,16.90
2022-11-29T18:45:09.811Z,17.38
2022-11-29T18:47:35.906Z,18.10
2022-11-29T18:50:02.047Z,17.05
2022-11-29T18:52:28.224Z,17.52
2022-11-29T18:54:54.359Z,16.88
2022-11-29T18:57:20.520Z,17.95
2022-11-29T18:59:46.620Z,17.38
2022-11-29T19:02:12.805Z,17.55
2022-11-29T19:04:38.942Z,17.23
2022-11-29T19:07:05.059Z,17.05
2022-11-29T19:09:31.314Z,17.52
2022-11-29T19:11:57.509Z,17.27
2022-11-29T19:14:23.648Z,16.30
2022-11-29T19:16:49.761Z,17.17
2022-11-29T19:19:15.941Z,17.00
2022-11-29T19:21:42.043Z,17.13
2022-11-29T19:24:08.165Z,17.85
2022-11-29T19:26:34.319Z,16.63
2022-11-29T19:29:00.453Z,17.02
2022-11-29T19:31:26.683Z,17.48
2022-11-29T19:33:52.880Z,17.25
2022-11-29T19:36:18.999Z,17.10
2022-11-29T19:38:50.153Z,16.25
2022-11-29T19:41:23.747Z,18.05
2022-11-29T19:43:53.641Z,17.38
2022-11-29T19:49:02.733Z,17.38
2022-11-29T20:02:11.640Z,15.35
2022-11-29T20:04:47.333Z,16.05
2022-11-29T20:07:15.597Z,16.02
2022-11-29T20:09:42.838Z,15.80
2022-11-29T20:12:11.513Z,15.10
2022-11-29T20:14:40.133Z,16.02
2022-11-29T20:17:10.495Z,16.13
2022-11-29T20:25:03.609Z,15.10
2022-11-29T20:27:35.532Z,15.05
2022-11-29T20:30:05.161Z,17.48
2022-11-29T20:32:35.107Z,15.10
2022-11-29T20:37:46.429Z,15.65
2022-11-29T20:40:17.381Z,15.45
2022-11-29T20:42:46.565Z,16.77
2022-11-29T20:45:16.004Z,16.60
2022-11-29T20:47:45.358Z,16.35
2022-11-29T20:50:14.793Z,15.13
2022-11-29T20:52:46.367Z,15.07
2022-11-29T20:55:14.783Z,14.57
2022-11-29T21:19:28.264Z,14.77
2022-11-29T21:21:54.629Z,15.07
2022-11-29T21:24:20.944Z,15.77
2022-11-29T21:26:47.088Z,14.75
2022-11-29T21:29:13.237Z,13.35
2022-11-29T21:31:39.551Z,13.05
2022-11-29T21:34:05.710Z,13.23
2022-11-29T21:36:31.812Z,13.05
2022-11-29T21:39:00.918Z,13.93
2022-11-29T21:41:31.099Z,14.00
2022-11-29T21:44:12.557Z,14.90
2022-11-29T21:46:38.741Z,14.00
2022-11-29T21:49:04.878Z,14.70
2022-11-29T21:51:30.999Z,14.20
2022-11-29T21:53:57.124Z,13.70
2022-11-29T21:56:23.234Z,14.02
2022-11-29T21:58:49.487Z,14.65
2022-11-29T22:01:15.681Z,15.55
2022-11-29T22:03:41.800Z,14.98
2022-11-29T22:06:07.956Z,14.55
2022-11-29T22:08:34.183Z,12.13
2022-11-29T22:11:00.318Z,14.13
2022-11-29T22:13:26.448Z,14.20
2022-11-29T22:15:52.572Z,14.23
2022-11-29T22:18:18.705Z,14.45
2022-11-29T22:20:44.828Z,14.07
2022-11-29T22:23:10.956Z,13.77
2022-11-29T22:25:37.239Z,13.70
2022-11-29T22:28:03.338Z,14.27
2022-11-29T22:30:29.479Z,13.82
2022-11-29T22:32:55.594Z,13.60
2022-11-29T22:35:21.726Z,14.40
2022-11-29T22:37:47.852Z,14.38
2022-11-29T22:40:14.065Z,14.32
2022-11-29T22:42:40.241Z,15.13
2022-11-29T22:45:06.364Z,15.13
2022-11-29T22:47:32.476Z,14.68
2022-11-29T22:49:58.629Z,15.15
2022-11-29T22:52:24.733Z,15.38
2022-11-29T22:54:50.923Z,15.38
2022-11-29T22:57:17.072Z,15.98
2022-11-29T22:59:43.175Z,14.63
2022-11-29T23:02:09.353Z,15.63
2022-11-29T23:04:35.572Z,16.02
2022-11-29T23:07:01.693Z,15.55
2022-11-29T23:09:27.835Z,14.90
2022-11-29T23:11:53.973Z,15.60
2022-11-29T23:14:20.112Z,15.23
2022-11-29T23:16:46.289Z,13.73
2022-11-29T23:19:12.416Z,13.43
2022-11-29T23:21:38.535Z,14.75
2022-11-29T23:24:04.640Z,13.77
2022-11-29T23:26:30.832Z,13.77
2022-11-29T23:28:57.052Z,14.13
2022-11-29T23:31:23.277Z,14.90
2022-11-29T23:33:49.448Z,13.95
2022-11-29T23:36:15.571Z,14.32
2022-11-29T23:38:41.675Z,15.00
2022-11-29T23:41:07.800Z,14.77
2022-11-29T23:43:33.908Z,13.80
2022-11-29T23:46:00.082Z,14.10
2022-11-29T23:48:26.276Z,13.48
2022-11-29T23:50:52.379Z,13.32
2022-11-29T23:53:18.506Z,13.98
2022-11-29T23:55:44.625Z,12.95
2022-11-29T23:58:10.724Z,12.80
